Disclaimer

Please do not use the information listed here in-flight or in-navigation, as they are not provided to us by the airports but are provided by volunteers, so they might be outdated.

Search


Regions


Airport information page

No radio frequency information is available.

Airport informations:
Latitude: 36° 34' 56.99" S
Longitude: 072° 01' 52.92" W
Elevation: 495 feet - 151 meters
Operating hours: From sunrise to sunset (SR-SS)
Operating agency: Civil government, landing fees and diplomatic clearance may be required
Timezone: UTC-4(-3DT)
Fuel: N/A

Runway information:
04/22 - 5740 x 98 feet< - >1750 x 30 meters

Recent METARs:
SCCH 202000Z 29008KT CAVOK 25/14 Q1014
SCCH 202000Z 29008KT CAVOK 25/14 Q1014
SCCH 202100Z 25007KT CAVOK 24/13 Q1014

Airport on the map: